McLean, TX (79057)

3:44 AM CDT on May 24, 2015 (GMT -0500)
HADS | | Change Station
CLOSE
Current Station
Personal Weather Station
Location: Lefors, TX
Elevation: 2797 ft
Nearby Weather Stations

Elev 2797 ft 35.44 °N, 100.81 °W | Updated 44 minutes ago

Overcast
Overcast
60 °F
Feels Like 60 °F
N
1
Wind Variable Wind from ESE
Gusts 0.0 mph

Today
High -- | Low -- °F
--% Chance of Precip.
Yesterday
High -- | Low -- °F
Precip. -- in
6:32 AM 8:46 PM
Waxing Crescent, 37% visible
Pressure 29.90 in
Visibility 3.0 miles
Clouds Overcast 600 ft
Dew Point 56 °F
Humidity 88%
Rainfall in
Snow Depth Not available.
UV 0 out of 12
Pollen .70 out of 12
Air Quality Not available.
Flu Activity Sporadic
METAR KPPA 240815Z AUTO 15011G16KT 3SM BR OVC006 15/14 A2990 RMK AO2 T01450138

More Conditions Fewer Conditions

Pressure 29.90 in
Visibility 3.0 miles
Clouds Overcast 600 ft
Dew Point 56 °F
Humidity 88%
Rainfall in
Snow Depth Not available.
UV 0 out of 12
Pollen .70 out of 12
Air Quality Not available.
Flu Activity Sporadic
METAR KPPA 240815Z AUTO 15011G16KT 3SM BR OVC006 15/14 A2990 RMK AO2 T01450138

More Conditions Fewer Conditions

10-Day Weather Forecast

Almanac

Astronomy

May. 24, 2015 Rise Set
Actual Time
Civil Twilight
Nautical Twilight
Astronomical Twilight
Moon
Length of Visible Light
Length of Day
Tomorrow will be .
, % of the Moon is Illuminated

Today's Extremes

State Highs State Lows

Community

WunderPhotos

Upload Photos

1,823,698 photos uploaded!

WunderBlogs® & News

Nearby

Air Quality

  Air Quality AQ Index Pollutant
Not available.

Snow Depth

Station Depth Elevation

Earthquake Activity

City Distance Mag. Time & Date
Minimum magnitude displayed is 2.5.

Coastal Water Temperatures

Place Temperature

Stations

Nearby Weather Stations

Station Location Temp. Windchill Dew Point Humidity Wind Precip. Elev Updated Type